Terminal Aerodrome Forecast
Issued by NWS Jackson, MS

Home | Current Version | Previous Version | Text Only | Print | Product List | Glossary On
Versions: 1 2 3 4 5 6 7 8 9 10 11 12 13
588
FTUS44 KJAN 241720
TAFJAN
TAF
KJAN 241720Z 2418/2518 31006KT P6SM SCT025 BKN035
      TEMPO 2418/2420 BKN025
     FM250900 33003KT P6SM SCT250=

USA.gov is the U.S. government's official web portal to all federal, state and local government web resources and services.